createdAt,value
2017-09-10T00:00:47.786Z,5.7
2017-09-10T00:01:50.174Z,5.6
2017-09-10T00:02:52.570Z,5.7
2017-09-10T00:03:54.970Z,5.7
2017-09-10T00:04:57.367Z,5.6
2017-09-10T00:05:59.755Z,5.7
2017-09-10T00:07:02.170Z,5.7
2017-09-10T00:08:04.561Z,5.7
2017-09-10T00:09:06.959Z,5.7
2017-09-10T00:10:09.362Z,5.7
2017-09-10T00:11:11.752Z,5.7
2017-09-10T00:12:14.152Z,5.7
2017-09-10T00:13:16.556Z,5.7
2017-09-10T00:14:18.967Z,5.7
2017-09-10T00:15:21.364Z,5.6
2017-09-10T00:16:23.771Z,5.7
2017-09-10T00:17:26.161Z,5.7
2017-09-10T00:18:28.555Z,5.7
2017-09-10T00:19:30.946Z,5.7
2017-09-10T00:20:33.350Z,5.7
2017-09-10T00:21:35.747Z,5.7
2017-09-10T00:22:38.143Z,5.7
2017-09-10T00:23:40.533Z,5.7
2017-09-10T00:24:42.931Z,5.7
2017-09-10T00:25:45.349Z,5.7
2017-09-10T00:26:47.744Z,5.7
2017-09-10T00:27:50.133Z,5.6
2017-09-10T00:28:52.539Z,5.7
2017-09-10T00:29:54.933Z,5.7
2017-09-10T00:30:57.344Z,5.7
2017-09-10T00:32:00.069Z,5.7
2017-09-10T00:33:02.459Z,5.7
2017-09-10T00:34:04.852Z,5.7
2017-09-10T00:35:07.254Z,5.7
2017-09-10T00:36:09.660Z,5.7
2017-09-10T00:37:12.058Z,5.7
2017-09-10T00:38:14.449Z,5.7
2017-09-10T00:39:16.855Z,5.7
2017-09-10T00:40:19.256Z,5.7
2017-09-10T00:41:21.642Z,5.7
2017-09-10T00:42:24.376Z,5.7
2017-09-10T00:43:26.768Z,5.7
2017-09-10T00:44:29.171Z,5.7
2017-09-10T00:45:31.567Z,5.7
2017-09-10T00:46:33.960Z,5.6
2017-09-10T00:47:36.356Z,5.7
2017-09-10T00:48:38.750Z,5.7
2017-09-10T00:49:41.141Z,5.7
2017-09-10T00:50:43.536Z,5.7
2017-09-10T00:51:45.938Z,5.7
2017-09-10T00:52:48.341Z,5.7
2017-09-10T00:53:50.739Z,5.7
2017-09-10T00:54:53.128Z,5.7
2017-09-10T00:55:55.867Z,5.7
2017-09-10T00:56:58.271Z,5.7
2017-09-10T00:58:00.684Z,5.7
2017-09-10T00:59:03.071Z,5.7
2017-09-10T01:00:05.808Z,5.7
2017-09-10T01:01:08.205Z,5.7
2017-09-10T01:02:10.948Z,5.7
2017-09-10T01:03:13.344Z,5.7
2017-09-10T01:04:15.764Z,5.7
2017-09-10T01:05:18.128Z,5.7
2017-09-10T01:06:20.526Z,5.7
2017-09-10T01:07:22.924Z,5.7
2017-09-10T01:08:25.312Z,5.7
2017-09-10T01:09:27.716Z,5.7
2017-09-10T01:10:30.119Z,5.7
2017-09-10T01:11:32.881Z,5.6
2017-09-10T01:12:35.277Z,5.7
2017-09-10T01:13:37.661Z,5.6
2017-09-10T01:14:40.061Z,5.7
2017-09-10T01:15:42.469Z,5.6
2017-09-10T01:16:44.861Z,5.7
2017-09-10T01:17:47.259Z,5.7
2017-09-10T01:18:49.654Z,5.7
2017-09-10T01:19:52.058Z,5.7
2017-09-10T01:20:54.449Z,5.7
2017-09-10T01:21:56.853Z,5.7
2017-09-10T01:22:59.245Z,5.7
2017-09-10T01:24:01.644Z,5.7
2017-09-10T01:25:04.036Z,5.7
2017-09-10T01:26:06.774Z,5.6
2017-09-10T01:27:09.226Z,5.7
2017-09-10T01:28:11.643Z,5.7
2017-09-10T01:29:14.027Z,5.7
2017-09-10T01:30:16.436Z,5.7
2017-09-10T01:31:19.195Z,5.6
2017-09-10T01:32:21.595Z,5.7
2017-09-10T01:33:24.349Z,5.6
2017-09-10T01:34:27.136Z,5.7
2017-09-10T01:35:29.535Z,5.7
2017-09-10T01:36:32.294Z,5.6
2017-09-10T01:37:34.682Z,5.6
2017-09-10T01:38:37.072Z,5.6
2017-09-10T01:39:39.473Z,5.6
2017-09-10T01:40:41.863Z,5.6
2017-09-10T01:41:44.293Z,5.6
2017-09-10T01:42:46.661Z,5.6
2017-09-10T01:43:49.048Z,5.7
2017-09-10T01:44:51.450Z,5.6
2017-09-10T01:45:53.856Z,5.6
2017-09-10T01:46:56.240Z,5.6
2017-09-10T01:47:58.630Z,5.6
2017-09-10T01:49:01.043Z,5.6
2017-09-10T01:50:03.776Z,5.6
2017-09-10T01:51:06.164Z,5.6
2017-09-10T01:52:08.565Z,5.6
2017-09-10T01:53:10.950Z,5.6
2017-09-10T01:54:13.355Z,5.6
2017-09-10T01:55:15.757Z,5.6
2017-09-10T01:56:18.138Z,5.6
2017-09-10T01:57:20.528Z,5.6
2017-09-10T01:58:22.926Z,5.6
2017-09-10T01:59:25.320Z,5.7
2017-09-10T02:00:28.057Z,5.7
2017-09-10T02:01:30.445Z,5.7
2017-09-10T02:02:32.843Z,5.6
2017-09-10T02:03:35.241Z,5.6
2017-09-10T02:04:37.658Z,5.6
2017-09-10T02:05:40.069Z,5.6
2017-09-10T02:06:42.809Z,5.6
2017-09-10T02:07:45.203Z,5.6
2017-09-10T02:08:47.599Z,5.6
2017-09-10T02:09:50.000Z,5.6
2017-09-10T02:10:52.390Z,5.6
2017-09-10T02:11:54.782Z,5.6
2017-09-10T02:12:57.177Z,5.6
2017-09-10T02:13:59.579Z,5.6
2017-09-10T02:15:01.969Z,5.5
2017-09-10T02:16:04.367Z,5.5
2017-09-10T02:17:06.762Z,5.6
2017-09-10T02:18:09.151Z,5.6
2017-09-10T02:19:11.547Z,5.6
2017-09-10T02:20:13.948Z,5.5
2017-09-10T02:21:16.695Z,5.5
2017-09-10T02:22:19.434Z,5.6
2017-09-10T02:23:22.162Z,5.6
2017-09-10T02:24:24.560Z,5.5
2017-09-10T02:25:26.962Z,5.6
2017-09-10T02:26:29.685Z,5.6
2017-09-10T02:27:32.086Z,5.6
2017-09-10T02:28:34.479Z,5.6
2017-09-10T02:29:36.868Z,5.6
2017-09-10T02:30:39.278Z,5.6
2017-09-10T02:31:41.674Z,5.5
2017-09-10T02:32:44.067Z,5.5
2017-09-10T02:33:46.465Z,5.5
2017-09-10T02:34:48.868Z,5.6
2017-09-10T02:35:51.243Z,5.6
2017-09-10T02:36:53.647Z,5.6
2017-09-10T02:37:56.031Z,5.6
2017-09-10T02:38:58.425Z,5.6
2017-09-10T02:40:00.825Z,5.6
2017-09-10T02:41:03.219Z,5.6
2017-09-10T02:42:05.609Z,5.6
2017-09-10T02:43:08.005Z,5.6
2017-09-10T02:44:10.411Z,5.6
2017-09-10T02:45:12.800Z,5.6
2017-09-10T02:46:15.199Z,5.5
2017-09-10T02:47:17.592Z,5.5
2017-09-10T02:48:19.995Z,5.5
2017-09-10T02:49:22.387Z,5.6
2017-09-10T02:50:24.787Z,5.6
2017-09-10T02:51:27.175Z,5.5
2017-09-10T02:52:29.909Z,5.5
2017-09-10T02:53:32.306Z,5.6
2017-09-10T02:54:34.699Z,5.5
2017-09-10T02:55:37.093Z,5.5
2017-09-10T02:56:39.504Z,5.5
2017-09-10T02:57:41.882Z,5.6
2017-09-10T02:58:44.285Z,5.5
2017-09-10T02:59:46.679Z,5.5
2017-09-10T03:00:49.067Z,5.5
2017-09-10T03:01:51.461Z,5.5
2017-09-10T03:02:53.857Z,5.5
2017-09-10T03:03:56.248Z,5.6
2017-09-10T03:04:58.650Z,5.5
2017-09-10T03:06:01.375Z,5.6
2017-09-10T03:07:03.770Z,5.5
2017-09-10T03:08:06.159Z,5.6
2017-09-10T03:09:08.561Z,5.5
2017-09-10T03:10:10.951Z,5.6
2017-09-10T03:11:13.348Z,5.5
2017-09-10T03:12:15.749Z,5.5
2017-09-10T03:13:18.139Z,5.5
2017-09-10T03:14:20.530Z,5.5
2017-09-10T03:15:22.923Z,5.6
2017-09-10T03:16:25.327Z,5.6
2017-09-10T03:17:27.715Z,5.6
2017-09-10T03:18:30.113Z,5.6
2017-09-10T03:19:32.518Z,5.6
2017-09-10T03:20:35.237Z,5.5
2017-09-10T03:21:37.633Z,5.6
2017-09-10T03:22:40.379Z,5.5
2017-09-10T03:23:42.767Z,5.6
2017-09-10T03:24:45.158Z,5.5
2017-09-10T03:25:47.565Z,5.6
2017-09-10T03:26:49.951Z,5.6
2017-09-10T03:27:52.346Z,5.5
2017-09-10T03:28:54.745Z,5.5
2017-09-10T03:29:57.126Z,5.5
2017-09-10T03:30:59.527Z,5.6
2017-09-10T03:32:01.915Z,5.6
2017-09-10T03:33:04.314Z,5.6
2017-09-10T03:34:06.722Z,5.5
2017-09-10T03:35:09.108Z,5.5
2017-09-10T03:36:11.504Z,5.5
2017-09-10T03:37:13.906Z,5.5
2017-09-10T03:38:16.292Z,5.6
2017-09-10T03:39:18.683Z,5.6
2017-09-10T03:40:21.085Z,5.6
2017-09-10T03:41:23.470Z,5.5
2017-09-10T03:42:25.864Z,5.7
2017-09-10T03:43:28.258Z,5.6
2017-09-10T03:44:30.647Z,5.5
2017-09-10T03:45:33.040Z,5.6
2017-09-10T03:46:35.439Z,5.6
2017-09-10T03:47:37.836Z,5.5
2017-09-10T03:48:40.226Z,5.6
2017-09-10T03:49:42.630Z,5.5
2017-09-10T03:50:45.030Z,5.5
2017-09-10T03:51:47.442Z,5.5
2017-09-10T03:52:50.183Z,5.5
2017-09-10T03:53:53.270Z,5.5
2017-09-10T03:54:55.665Z,5.5
2017-09-10T03:55:58.059Z,5.5
2017-09-10T03:57:00.449Z,5.5
2017-09-10T03:58:02.844Z,5.5
2017-09-10T03:59:05.234Z,5.5
2017-09-10T04:00:07.627Z,5.6
2017-09-10T04:01:10.362Z,5.5
2017-09-10T04:02:12.762Z,5.5
2017-09-10T04:03:15.150Z,5.5
2017-09-10T04:04:17.548Z,5.6
2017-09-10T04:05:19.939Z,5.5
2017-09-10T04:06:22.670Z,5.5
2017-09-10T04:07:25.076Z,5.5
2017-09-10T04:08:27.484Z,5.5
2017-09-10T04:09:29.873Z,5.7
2017-09-10T04:10:32.273Z,5.6
2017-09-10T04:11:35.006Z,5.5
2017-09-10T04:12:37.398Z,5.6
2017-09-10T04:13:39.782Z,5.5
2017-09-10T04:14:42.181Z,5.6
2017-09-10T04:15:44.574Z,5.6
2017-09-10T04:16:47.311Z,5.6
2017-09-10T04:17:49.707Z,5.6
2017-09-10T04:18:52.097Z,5.6
2017-09-10T04:19:54.486Z,5.6
2017-09-10T04:20:57.219Z,5.5
2017-09-10T04:21:59.600Z,5.6
2017-09-10T04:23:01.993Z,5.6
2017-09-10T04:24:04.402Z,5.6
2017-09-10T04:25:06.793Z,5.6
2017-09-10T04:26:09.189Z,5.6
2017-09-10T04:27:11.589Z,5.6
2017-09-10T04:28:13.988Z,5.5
2017-09-10T04:29:16.735Z,5.5
2017-09-10T04:30:19.136Z,5.6
2017-09-10T04:31:21.528Z,5.6
2017-09-10T04:32:23.929Z,5.6
2017-09-10T04:33:26.323Z,5.5
2017-09-10T04:34:28.734Z,5.5
2017-09-10T04:35:31.130Z,5.6
2017-09-10T04:36:33.519Z,5.6
2017-09-10T04:37:35.934Z,5.6
2017-09-10T04:38:38.331Z,5.5
2017-09-10T04:39:40.721Z,5.6
2017-09-10T04:40:43.131Z,5.6
2017-09-10T04:41:45.524Z,5.6
2017-09-10T04:42:47.905Z,5.6
2017-09-10T04:43:50.305Z,5.5
2017-09-10T04:44:52.705Z,5.5
2017-09-10T04:45:55.099Z,5.6
2017-09-10T04:46:57.486Z,5.7
2017-09-10T04:47:59.896Z,5.5
2017-09-10T04:49:02.296Z,5.5
2017-09-10T04:50:04.705Z,5.7
2017-09-10T04:51:07.099Z,5.6
2017-09-10T04:52:09.492Z,5.6
2017-09-10T04:53:11.883Z,5.7
2017-09-10T04:54:14.614Z,5.6
2017-09-10T04:55:17.003Z,5.6
2017-09-10T04:56:19.398Z,5.5
2017-09-10T04:57:21.789Z,5.6
2017-09-10T04:58:24.187Z,5.9
2017-09-10T04:59:26.584Z,5.6
2017-09-10T05:00:28.980Z,5.6
2017-09-10T05:01:31.390Z,5.7
2017-09-10T05:02:33.784Z,5.5
2017-09-10T05:03:36.184Z,5.7
2017-09-10T05:04:38.587Z,5.6
2017-09-10T05:05:40.985Z,5.7
2017-09-10T05:06:43.380Z,5.7
2017-09-10T05:07:45.775Z,5.5
2017-09-10T05:08:48.157Z,5.6
2017-09-10T05:09:50.550Z,5.5
2017-09-10T05:10:52.956Z,5.6
2017-09-10T05:11:55.350Z,5.6
2017-09-10T05:12:57.745Z,5.5
2017-09-10T05:14:00.141Z,5.6
2017-09-10T05:15:02.550Z,5.5
2017-09-10T05:16:04.960Z,5.7
2017-09-10T05:17:07.694Z,5.5
2017-09-10T05:18:10.090Z,5.5
2017-09-10T05:19:12.489Z,5.5
2017-09-10T05:20:14.883Z,5.5
2017-09-10T05:21:17.281Z,5.5
2017-09-10T05:22:19.677Z,5.6
2017-09-10T05:23:22.062Z,5.5
2017-09-10T05:24:24.793Z,5.5
2017-09-10T05:25:27.195Z,5.5
2017-09-10T05:26:29.587Z,5.5
2017-09-10T05:27:31.972Z,5.5
2017-09-10T05:28:34.357Z,5.5
2017-09-10T05:29:36.754Z,5.5
2017-09-10T05:30:39.165Z,5.6
2017-09-10T05:31:41.560Z,5.5
2017-09-10T05:32:43.949Z,5.6
2017-09-10T05:33:46.348Z,5.5
2017-09-10T05:34:48.752Z,5.5
2017-09-10T05:35:51.150Z,5.6
2017-09-10T05:36:53.544Z,5.5
2017-09-10T05:37:56.283Z,5.5
2017-09-10T05:38:58.680Z,5.5
2017-09-10T05:40:01.078Z,5.5
2017-09-10T05:41:03.463Z,5.5
2017-09-10T05:42:05.863Z,5.5
2017-09-10T05:43:08.249Z,5.6
2017-09-10T05:44:10.644Z,5.6
2017-09-10T05:45:13.044Z,5.5
2017-09-10T05:46:15.440Z,5.6
2017-09-10T05:47:17.822Z,5.5
2017-09-10T05:48:20.232Z,5.6
2017-09-10T05:49:22.615Z,5.6
2017-09-10T05:50:25.011Z,5.6
2017-09-10T05:51:27.407Z,5.6
2017-09-10T05:52:29.802Z,5.6
2017-09-10T05:53:32.190Z,5.6
2017-09-10T05:54:34.589Z,5.5
2017-09-10T05:55:36.977Z,5.6
2017-09-10T05:56:39.379Z,5.6
2017-09-10T05:57:42.119Z,5.6
2017-09-10T05:58:44.509Z,5.6
2017-09-10T05:59:46.903Z,5.6
2017-09-10T06:00:49.319Z,5.6
2017-09-10T06:01:52.039Z,5.6
2017-09-10T06:02:54.777Z,5.6
2017-09-10T06:03:57.171Z,5.6
2017-09-10T06:04:59.575Z,5.5
2017-09-10T06:06:01.981Z,5.6
2017-09-10T06:07:04.374Z,5.6
2017-09-10T06:08:06.765Z,5.6
2017-09-10T06:09:09.168Z,5.6
2017-09-10T06:10:11.560Z,5.6
2017-09-10T06:11:13.968Z,5.7
2017-09-10T06:12:16.364Z,5.7
2017-09-10T06:13:18.776Z,5.7
2017-09-10T06:14:21.175Z,5.7
2017-09-10T06:15:23.571Z,5.7
2017-09-10T06:16:25.970Z,5.7
2017-09-10T06:17:28.374Z,5.7
2017-09-10T06:18:30.760Z,5.6
2017-09-10T06:19:33.156Z,5.7
2017-09-10T06:20:35.549Z,5.7
2017-09-10T06:21:38.293Z,5.7
2017-09-10T06:22:40.709Z,5.7
2017-09-10T06:23:43.115Z,5.7
2017-09-10T06:24:45.526Z,5.7
2017-09-10T06:25:47.923Z,5.7
2017-09-10T06:26:50.656Z,5.7
2017-09-10T06:27:53.061Z,5.7
2017-09-10T06:28:55.453Z,5.7
2017-09-10T06:29:57.856Z,5.7
2017-09-10T06:31:00.252Z,5.7
2017-09-10T06:32:02.647Z,5.7
2017-09-10T06:33:05.067Z,5.7
2017-09-10T06:34:07.470Z,5.7
2017-09-10T06:35:09.879Z,5.7
2017-09-10T06:36:12.285Z,5.7
2017-09-10T06:37:14.685Z,5.8
2017-09-10T06:38:17.091Z,5.7
2017-09-10T06:39:19.484Z,5.7
2017-09-10T06:40:22.580Z,5.8
2017-09-10T06:41:24.972Z,5.8
2017-09-10T06:42:27.704Z,5.8
2017-09-10T06:43:30.097Z,5.7
2017-09-10T06:44:32.490Z,5.9
2017-09-10T06:45:34.903Z,5.8
2017-09-10T06:46:37.289Z,5.8
2017-09-10T06:47:39.686Z,5.8
2017-09-10T06:48:42.090Z,5.8
2017-09-10T06:49:44.492Z,5.7
2017-09-10T06:50:46.889Z,5.8
2017-09-10T06:51:49.640Z,5.8
2017-09-10T06:52:52.048Z,5.8
2017-09-10T06:53:54.450Z,5.8
2017-09-10T06:54:56.860Z,5.8
2017-09-10T06:55:59.282Z,5.8
2017-09-10T06:57:01.684Z,5.8
2017-09-10T06:58:04.078Z,5.8
2017-09-10T06:59:06.481Z,5.9
2017-09-10T07:00:08.893Z,5.8
2017-09-10T07:01:11.301Z,5.8
2017-09-10T07:02:13.707Z,5.9
2017-09-10T07:03:16.121Z,5.9
2017-09-10T07:04:18.524Z,5.9
2017-09-10T07:05:20.933Z,5.9
2017-09-10T07:06:23.335Z,5.9
2017-09-10T07:07:25.727Z,5.9
2017-09-10T07:08:28.130Z,5.9
2017-09-10T07:09:30.527Z,5.9
2017-09-10T07:10:32.924Z,5.9
2017-09-10T07:11:35.332Z,5.9
2017-09-10T07:12:37.726Z,5.9
2017-09-10T07:13:40.129Z,5.9
2017-09-10T07:14:42.566Z,5.9
2017-09-10T07:15:44.957Z,5.9
2017-09-10T07:16:47.371Z,5.9
2017-09-10T07:17:49.761Z,5.9
2017-09-10T07:18:52.832Z,5.9
2017-09-10T07:19:55.589Z,5.9
2017-09-10T07:20:57.986Z,5.9
2017-09-10T07:22:00.398Z,5.9
2017-09-10T07:23:02.789Z,5.9
2017-09-10T07:24:05.528Z,5.9
2017-09-10T07:25:07.925Z,5.9
2017-09-10T07:26:10.663Z,5.9
2017-09-10T07:27:13.067Z,5.9
2017-09-10T07:28:15.462Z,5.9
2017-09-10T07:29:17.859Z,5.9
2017-09-10T07:30:20.261Z,5.9
2017-09-10T07:31:23.017Z,5.9
2017-09-10T07:32:25.419Z,5.9
2017-09-10T07:33:27.815Z,6
2017-09-10T07:34:30.223Z,5.9
2017-09-10T07:35:32.631Z,6
2017-09-10T07:36:35.037Z,6
2017-09-10T07:37:37.769Z,5.9
2017-09-10T07:38:40.512Z,5.9
2017-09-10T07:39:42.917Z,6
2017-09-10T07:40:45.314Z,6
2017-09-10T07:41:47.717Z,6
2017-09-10T07:42:50.109Z,6
2017-09-10T07:43:52.508Z,6
2017-09-10T07:44:54.912Z,6
2017-09-10T07:45:57.315Z,6
2017-09-10T07:46:59.723Z,6
2017-09-10T07:48:02.116Z,6
2017-09-10T07:49:04.518Z,6
2017-09-10T07:50:06.911Z,6
2017-09-10T07:51:09.320Z,6
2017-09-10T07:52:11.731Z,6
2017-09-10T07:53:14.133Z,6
2017-09-10T07:54:16.535Z,6
2017-09-10T07:55:19.262Z,6
2017-09-10T07:56:21.664Z,6
2017-09-10T07:57:24.059Z,6
2017-09-10T07:58:26.467Z,6
2017-09-10T07:59:28.873Z,6
2017-09-10T08:00:31.272Z,6
2017-09-10T08:01:33.672Z,6
2017-09-10T08:02:36.070Z,6
2017-09-10T08:03:38.466Z,6
2017-09-10T08:04:40.863Z,6
2017-09-10T08:05:43.263Z,6.1
2017-09-10T08:06:45.666Z,6.1
2017-09-10T08:07:48.071Z,6.1
2017-09-10T08:08:50.482Z,6.1
2017-09-10T08:09:52.886Z,6.1
2017-09-10T08:10:55.297Z,6.1
2017-09-10T08:11:57.691Z,6.1
2017-09-10T08:13:00.103Z,6.1
2017-09-10T08:14:02.497Z,6.1
2017-09-10T08:15:04.893Z,6.1
2017-09-10T08:16:07.312Z,6.1
2017-09-10T08:17:09.700Z,6.1
2017-09-10T08:18:12.102Z,6.1
2017-09-10T08:19:14.512Z,6.1
2017-09-10T08:20:16.913Z,6.1
2017-09-10T08:21:19.317Z,6.1
2017-09-10T08:22:21.723Z,6.1
2017-09-10T08:23:24.121Z,6.1
2017-09-10T08:24:26.526Z,6.1
2017-09-10T08:25:28.932Z,6.1
2017-09-10T08:26:31.322Z,6.1
2017-09-10T08:27:33.725Z,6.1
2017-09-10T08:28:36.472Z,6.2
2017-09-10T08:29:38.866Z,6.2
2017-09-10T08:30:41.270Z,6.2
2017-09-10T08:31:44.005Z,6.2
2017-09-10T08:32:46.407Z,6.2
2017-09-10T08:33:49.164Z,6.2
2017-09-10T08:34:51.555Z,6.2
2017-09-10T08:35:53.961Z,6.2
2017-09-10T08:36:56.371Z,6.2
2017-09-10T08:37:58.777Z,6.2
2017-09-10T08:39:01.183Z,6.3
2017-09-10T08:40:03.590Z,6.2
2017-09-10T08:41:06.097Z,6.3
2017-09-10T08:42:08.497Z,6.3
2017-09-10T08:43:10.909Z,6.3
2017-09-10T08:44:13.333Z,6.3
2017-09-10T08:45:15.743Z,6.3
2017-09-10T08:46:18.146Z,6.3
2017-09-10T08:47:20.556Z,6.3
2017-09-10T08:48:22.951Z,6.3
2017-09-10T08:49:25.351Z,6.3
2017-09-10T08:50:27.765Z,6.4
2017-09-10T08:51:30.176Z,6.4
2017-09-10T08:52:32.582Z,6.4
2017-09-10T08:53:35.009Z,6.4
2017-09-10T08:54:37.426Z,6.4
2017-09-10T08:55:40.170Z,6.4
2017-09-10T08:56:42.577Z,6.4
2017-09-10T08:57:44.982Z,6.4
2017-09-10T08:58:47.387Z,6.5
2017-09-10T08:59:49.811Z,6.5
2017-09-10T09:00:52.203Z,6.5
2017-09-10T09:01:54.617Z,6.5
2017-09-10T09:02:57.020Z,6.5
2017-09-10T09:03:59.785Z,6.6
2017-09-10T09:05:02.197Z,6.5
2017-09-10T09:06:04.611Z,6.6
2017-09-10T09:07:07.375Z,6.5
2017-09-10T09:08:09.798Z,6.6
2017-09-10T09:09:12.214Z,6.6
2017-09-10T09:10:14.630Z,6.6
2017-09-10T09:11:17.046Z,6.6
2017-09-10T09:12:19.450Z,6.6
2017-09-10T09:13:21.860Z,6.7
2017-09-10T09:14:24.273Z,6.7
2017-09-10T09:15:26.682Z,6.7
2017-09-10T09:16:29.093Z,6.7
2017-09-10T09:17:31.840Z,6.7
2017-09-10T09:18:34.251Z,6.7
2017-09-10T09:19:36.663Z,6.7
2017-09-10T09:20:39.411Z,6.7
2017-09-10T09:21:41.830Z,6.7
2017-09-10T09:22:44.241Z,6.8
2017-09-10T09:23:46.645Z,6.7
2017-09-10T09:24:49.070Z,6.8
2017-09-10T09:25:51.808Z,6.8
2017-09-10T09:26:54.224Z,6.8
2017-09-10T09:27:56.636Z,6.9
2017-09-10T09:28:59.049Z,6.8
2017-09-10T09:30:01.461Z,6.9
2017-09-10T09:31:03.872Z,6.9
2017-09-10T09:32:06.278Z,6.9
2017-09-10T09:33:08.698Z,6.9
2017-09-10T09:34:11.108Z,6.9
2017-09-10T09:35:13.531Z,6.9
2017-09-10T09:36:15.947Z,6.9
2017-09-10T09:37:18.358Z,6.9
2017-09-10T09:38:20.774Z,6.9
2017-09-10T09:39:23.200Z,6.9
2017-09-10T09:40:25.620Z,6.9
2017-09-10T09:41:28.036Z,6.9
2017-09-10T09:42:30.783Z,6.9
2017-09-10T09:43:33.198Z,6.9
2017-09-10T09:44:35.614Z,7
2017-09-10T09:45:38.028Z,7
2017-09-10T09:46:40.435Z,7
2017-09-10T09:47:42.857Z,7
2017-09-10T09:48:45.265Z,7
2017-09-10T09:49:47.678Z,7
2017-09-10T09:50:50.099Z,7
2017-09-10T09:51:52.521Z,7
2017-09-10T09:52:55.265Z,7
2017-09-10T09:53:57.676Z,7
2017-09-10T09:55:00.088Z,7
2017-09-10T09:56:02.496Z,7
2017-09-10T09:57:04.930Z,7
2017-09-10T09:58:07.334Z,7.1
2017-09-10T09:59:09.740Z,7
2017-09-10T10:00:12.154Z,7
2017-09-10T10:01:14.563Z,7
2017-09-10T10:02:16.972Z,7.1
2017-09-10T10:03:19.385Z,7.1
2017-09-10T10:04:22.136Z,7
2017-09-10T10:05:24.537Z,7
2017-09-10T10:06:26.951Z,7.1
2017-09-10T10:07:29.356Z,7
2017-09-10T10:08:31.765Z,7
2017-09-10T10:09:34.173Z,7
2017-09-10T10:10:36.589Z,7
2017-09-10T10:11:38.999Z,7
2017-09-10T10:12:41.408Z,7.1
2017-09-10T10:13:43.823Z,7
2017-09-10T10:14:46.231Z,7
2017-09-10T10:15:48.652Z,7
2017-09-10T10:16:51.069Z,7.1
2017-09-10T10:17:53.473Z,7
2017-09-10T10:18:56.232Z,7.1
2017-09-10T10:19:58.999Z,7
2017-09-10T10:21:01.409Z,7
2017-09-10T10:22:03.818Z,7
2017-09-10T10:23:06.221Z,7
2017-09-10T10:24:08.627Z,7
2017-09-10T10:25:11.044Z,7
2017-09-10T10:26:13.457Z,7
2017-09-10T10:27:15.866Z,7.1
2017-09-10T10:28:18.279Z,7.1
2017-09-10T10:29:20.692Z,7
2017-09-10T10:30:23.113Z,7
2017-09-10T10:31:25.527Z,7.1
2017-09-10T10:32:27.920Z,7.1
2017-09-10T10:33:30.337Z,7.2
2017-09-10T10:34:32.749Z,7.1
2017-09-10T10:35:35.177Z,7.1
2017-09-10T10:36:37.583Z,7.1
2017-09-10T10:37:39.998Z,7
2017-09-10T10:38:42.401Z,7.1
2017-09-10T10:39:44.805Z,7.1
2017-09-10T10:40:47.224Z,7
2017-09-10T10:41:49.631Z,7
2017-09-10T10:42:52.381Z,7
2017-09-10T10:43:54.783Z,7.1
2017-09-10T10:44:57.199Z,7
2017-09-10T10:45:59.615Z,7
2017-09-10T10:47:02.028Z,7
2017-09-10T10:48:04.436Z,7.1
2017-09-10T10:49:06.837Z,7.1
2017-09-10T10:50:09.585Z,7.1
2017-09-10T10:51:12.028Z,7
2017-09-10T10:52:14.409Z,7.1
2017-09-10T10:53:17.167Z,7
2017-09-10T10:54:19.574Z,7
2017-09-10T10:55:21.982Z,7
2017-09-10T10:56:24.400Z,7.1
2017-09-10T10:57:26.811Z,7.1
2017-09-10T10:58:29.211Z,7.1
2017-09-10T10:59:31.624Z,7
2017-09-10T11:00:34.042Z,7
2017-09-10T11:01:36.462Z,7
2017-09-10T11:02:38.874Z,7
2017-09-10T11:03:41.278Z,7.1
2017-09-10T11:04:43.683Z,7.2
2017-09-10T11:05:46.101Z,7
2017-09-10T11:06:48.506Z,7
2017-09-10T11:07:50.927Z,7
2017-09-10T11:08:53.337Z,7
2017-09-10T11:09:55.745Z,7
2017-09-10T11:10:58.143Z,7
2017-09-10T11:12:00.891Z,7
2017-09-10T11:13:03.306Z,7
2017-09-10T11:14:05.708Z,7.1
2017-09-10T11:15:08.116Z,7
2017-09-10T11:16:10.543Z,7
2017-09-10T11:17:12.941Z,7.1
2017-09-10T11:18:15.357Z,7.1
2017-09-10T11:19:17.756Z,7.1
2017-09-10T11:20:20.159Z,7.1
2017-09-10T11:21:22.578Z,7.1
2017-09-10T11:22:24.986Z,7.1
2017-09-10T11:23:27.403Z,7.1
2017-09-10T11:24:29.810Z,7.1
2017-09-10T11:25:32.219Z,7.1
2017-09-10T11:26:34.631Z,7.1
2017-09-10T11:27:37.055Z,7.1
2017-09-10T11:28:39.459Z,7.1
2017-09-10T11:29:41.880Z,7.1
2017-09-10T11:30:44.283Z,7
2017-09-10T11:31:46.693Z,7.1
2017-09-10T11:32:49.108Z,7
2017-09-10T11:33:51.513Z,7
2017-09-10T11:34:53.950Z,7
2017-09-10T11:35:56.367Z,7
2017-09-10T11:36:58.772Z,7.1
2017-09-10T11:38:01.531Z,7
2017-09-10T11:39:03.933Z,7
2017-09-10T11:40:06.705Z,7.1
2017-09-10T11:41:09.108Z,7.1
2017-09-10T11:42:11.521Z,7.1
2017-09-10T11:43:13.927Z,7
2017-09-10T11:44:16.678Z,7.2
2017-09-10T11:45:19.077Z,7.1
2017-09-10T11:46:21.508Z,7.1
2017-09-10T11:47:24.370Z,7.1
2017-09-10T11:48:26.768Z,7.1
2017-09-10T11:49:29.183Z,7
2017-09-10T11:50:31.597Z,7
2017-09-10T11:51:34.009Z,7
2017-09-10T11:52:36.420Z,7
2017-09-10T11:53:38.838Z,7
2017-09-10T11:54:41.252Z,7.1
2017-09-10T11:55:43.665Z,7.1
2017-09-10T11:56:46.085Z,7.1
2017-09-10T11:57:48.492Z,7.1
2017-09-10T11:58:50.912Z,7
2017-09-10T11:59:53.326Z,7.1
2017-09-10T12:00:55.740Z,7.1
2017-09-10T12:01:58.150Z,7.1
2017-09-10T12:03:00.551Z,7.1
2017-09-10T12:04:02.975Z,7.1
2017-09-10T12:05:05.387Z,7.1
2017-09-10T12:06:07.806Z,7.1
2017-09-10T12:07:10.225Z,7.1
2017-09-10T12:08:12.631Z,7.1
2017-09-10T12:09:15.040Z,7.1
2017-09-10T12:10:17.450Z,7.1
2017-09-10T12:11:19.915Z,7.2
2017-09-10T12:12:22.340Z,7.2
2017-09-10T12:13:24.743Z,7.2
2017-09-10T12:14:27.158Z,7.2
2017-09-10T12:15:29.571Z,7.2
2017-09-10T12:16:32.002Z,7.2
2017-09-10T12:17:34.416Z,7.2
2017-09-10T12:18:36.839Z,7.2
2017-09-10T12:19:39.242Z,7.2
2017-09-10T12:20:41.647Z,7.2
2017-09-10T12:21:44.058Z,7.2
2017-09-10T12:22:46.472Z,7.2
2017-09-10T12:23:48.887Z,7.2
2017-09-10T12:24:51.291Z,7.2
2017-09-10T12:25:53.720Z,7.2
2017-09-10T12:26:56.135Z,7.1
2017-09-10T12:27:58.892Z,7.1
2017-09-10T12:29:01.308Z,7.1
2017-09-10T12:30:04.055Z,7.1
2017-09-10T12:31:06.478Z,7.1
2017-09-10T12:32:08.897Z,7.1
2017-09-10T12:33:11.313Z,7.1
2017-09-10T12:34:14.055Z,7.1
2017-09-10T12:35:16.470Z,7.1
2017-09-10T12:36:18.905Z,7.1
2017-09-10T12:37:21.308Z,7.3
2017-09-10T12:38:23.707Z,7.3
2017-09-10T12:39:26.124Z,7.2
2017-09-10T12:40:28.532Z,7.2
2017-09-10T12:41:31.312Z,7.2
2017-09-10T12:42:33.731Z,7.1
2017-09-10T12:43:36.137Z,7.1
2017-09-10T12:44:38.554Z,7.1
2017-09-10T12:45:40.965Z,7.1
2017-09-10T12:46:43.381Z,7.1
2017-09-10T12:47:45.788Z,7.1
2017-09-10T12:48:48.218Z,7.1
2017-09-10T12:49:50.619Z,7.1
2017-09-10T12:50:53.038Z,7.2
2017-09-10T12:51:55.449Z,7.1
2017-09-10T12:52:57.850Z,7.1
2017-09-10T12:54:00.269Z,7.1
2017-09-10T12:55:02.680Z,7.1
2017-09-10T12:56:05.092Z,7.1
2017-09-10T12:57:07.512Z,7.2
2017-09-10T12:58:09.917Z,7.1
2017-09-10T12:59:12.335Z,7.1
2017-09-10T13:00:14.780Z,7.1
2017-09-10T13:01:17.174Z,7.1
2017-09-10T13:02:19.589Z,7.2
2017-09-10T13:03:22.005Z,7.2
2017-09-10T13:04:24.408Z,7.1
2017-09-10T13:05:26.822Z,7.2
2017-09-10T13:06:29.227Z,7.2
2017-09-10T13:07:31.646Z,7.2
2017-09-10T13:08:34.063Z,7.2
2017-09-10T13:09:36.468Z,7.2
2017-09-10T13:10:38.924Z,7.1
2017-09-10T13:11:41.342Z,7
2017-09-10T13:12:43.753Z,7.1
2017-09-10T13:13:46.168Z,7.1
2017-09-10T13:14:48.577Z,7.2
2017-09-10T13:15:50.988Z,7.2
2017-09-10T13:16:53.404Z,7.2
2017-09-10T13:17:55.815Z,7.2
2017-09-10T13:18:58.234Z,7.2
2017-09-10T13:20:00.647Z,7.2
2017-09-10T13:21:03.413Z,7.2
2017-09-10T13:22:05.824Z,7.2
2017-09-10T13:23:08.247Z,7.2
2017-09-10T13:24:10.650Z,7.2
2017-09-10T13:25:13.396Z,7.2
2017-09-10T13:26:15.807Z,7.2
2017-09-10T13:27:18.209Z,7.3
2017-09-10T13:28:20.660Z,7.3
2017-09-10T13:29:23.090Z,7.3
2017-09-10T13:30:25.510Z,7.2
2017-09-10T13:31:27.941Z,7.2
2017-09-10T13:32:30.368Z,7.3
2017-09-10T13:33:33.178Z,7.3
2017-09-10T13:34:35.611Z,7.2
2017-09-10T13:35:38.037Z,7.3
2017-09-10T13:36:40.473Z,7.2
2017-09-10T13:37:42.893Z,7.2
2017-09-10T13:38:45.318Z,7.2
2017-09-10T13:39:47.741Z,7.3
2017-09-10T13:40:50.166Z,7.3
2017-09-10T13:41:52.598Z,7.3
2017-09-10T13:42:55.058Z,7.2
2017-09-10T13:43:57.497Z,7.2
2017-09-10T13:44:59.926Z,7.2
2017-09-10T13:46:02.352Z,7.3
2017-09-10T13:47:05.147Z,7.3
2017-09-10T13:48:07.591Z,7.3
2017-09-10T13:49:10.024Z,7.3
2017-09-10T13:50:12.432Z,7.3
2017-09-10T13:51:14.862Z,7.3
2017-09-10T13:52:17.287Z,7.4
2017-09-10T13:53:19.758Z,7.3
2017-09-10T13:54:22.180Z,7.3
2017-09-10T13:55:24.619Z,7.3
2017-09-10T13:56:27.039Z,7.3
2017-09-10T13:57:29.475Z,7.3
2017-09-10T13:58:31.914Z,7.3
2017-09-10T13:59:34.713Z,7.3
2017-09-10T14:00:37.145Z,7.3
2017-09-10T14:01:39.572Z,7.2
2017-09-10T14:02:42.013Z,7.2
2017-09-10T14:03:44.417Z,7.3
2017-09-10T14:04:46.850Z,7.2
2017-09-10T14:05:49.270Z,7.3
2017-09-10T14:06:51.701Z,7.2
2017-09-10T14:07:54.136Z,7.3
2017-09-10T14:08:56.594Z,7.2
2017-09-10T14:09:59.003Z,7.2
2017-09-10T14:11:01.421Z,7.2
2017-09-10T14:12:03.841Z,7.2
2017-09-10T14:13:06.604Z,7.3
2017-09-10T14:14:09.030Z,7.2
2017-09-10T14:15:11.466Z,7.2
2017-09-10T14:16:13.878Z,7.2
2017-09-10T14:17:16.310Z,7.2
2017-09-10T14:18:18.751Z,7.2
2017-09-10T14:19:21.171Z,7.2
2017-09-10T14:20:23.600Z,7.2
2017-09-10T14:21:26.023Z,7.2
2017-09-10T14:22:28.455Z,7.2
2017-09-10T14:23:30.891Z,7.2
2017-09-10T14:24:33.316Z,7.1
2017-09-10T14:25:35.734Z,7.1
2017-09-10T14:26:38.169Z,7.2
2017-09-10T14:27:40.623Z,7.1